Bryan's Hourly Summary for Monday, March 13, 2017
Hour Temp
(f)
RH
(%)
Solar Rad.
(MJ/m2)
Rainfall
(in)
Wind
(mph)
3/13/2017 12:00 AM 47 89 0 0 0
3/13/2017 1:00 AM 47 88 0 0 0
3/13/2017 2:00 AM 45 92 0 0 1.22
3/13/2017 3:00 AM 46 95 0 0 0.43
3/13/2017 4:00 AM 47 94 0 0 2.73
3/13/2017 5:00 AM 48 93 0 0 2.31
3/13/2017 6:00 AM 48 91 0 0 2.29
3/13/2017 7:00 AM 48 90 0 0 4.98
3/13/2017 8:00 AM 48 91 0 0 4.72
3/13/2017 9:00 AM 48 94 0.09 0 2.84
3/13/2017 10:00 AM 49 94 0.14 0 3.31
3/13/2017 11:00 AM 50 92 0.39 0 5.88
3/13/2017 12:00 PM 52 85 0.78 0 7.26
3/13/2017 1:00 PM 55 73 1.64 0 7.59
3/13/2017 2:00 PM 58 64 2.87 0 7.07
3/13/2017 3:00 PM 61 58 2.48 0 10.73
3/13/2017 4:00 PM 61 58 2.55 0 10.77
3/13/2017 5:00 PM 62 54 2.02 0 9.57
3/13/2017 6:00 PM 62 52 1.33 0 8.59
3/13/2017 7:00 PM 62 52 0.59 0 6.71
3/13/2017 8:00 PM 60 54 0.05 0 3.72
3/13/2017 9:00 PM 56 64 0 0 0.11
3/13/2017 10:00 PM 52 77 0 0 0.23
3/13/2017 11:00 PM 53 57 0 0 3.81
Data Summary 52 77 14.93 0.00 4.45